Stirling, United Kingdom
Current Conditions -  °F | °C
As of 12:50 AM on Sunday 21 Dec 2014 (Local Time) from EGPH Reporting Station
Scattered Clouds Scattered Clouds  
Wind Chill: 37°   Ceiling: Unl
Heat Index: 45°   Visibility: 6mi
Dew Point: 41°   Wind: 16mph
Humidity: 87%   Direction: 240°WSW
Pressure: 30.12"   Gusts: NA
Location:  56.13°N, 3.94°W
Report Text: EGPH 210050Z 24014KT 9999 SCT030 07/05 Q1020
Loading
Personal Weather Stations






























Interactive Weather Map New forecast layout! Learn more

10-Day Weather Forecast

Advertisements
Track Severe Weather on mobile